Terminal Aerodrome Forecast
Issued by NWS

Home | Current Version | Previous Version | Graphics & Text | Print | Product List | Glossary On
Versions: 1 2 3 4 5 6 7 8 9 10 11 12 13 14 15 16 17 18 19 20
000
FTUS43 KLSX 262100 AAB
TAFSUS
TAF AMD
KSUS 262156Z 2622/2718 26014KT P6SM VCSH SCT100 OVC150
     FM270200 20008KT P6SM SCT200
     FM271200 30012KT P6SM SCT040=

USA.gov is the U.S. government's official web portal to all federal, state and local government web resources and services.